Time;durP1;ratioP1;P1;durP2;ratioP2;P2;SDS_P1;SDS_P2;PMS_P1;PMS_P2;Temp;Humidity;BMP_temperature;BMP_pressure;BME280_temperature;BME280_humidity;BME280_pressure;Samples;Min_cycle;Max_cycle;Signal;HPM_P1;HPM_P2
2021/06/07 00:01:31;;;;;;;8.73;6.03;;;19.90;84.00;;;;;;4972360;28;20090;-66
2021/06/07 00:03:56;;;;;;;9.48;6.22;;;19.90;84.10;;;;;;4970962;28;20085;-66
2021/06/07 00:06:22;;;;;;;9.25;6.28;;;19.90;84.10;;;;;;4971069;28;20026;-66
2021/06/07 00:08:48;;;;;;;9.23;6.22;;;20.00;84.10;;;;;;4972602;28;20023;-66
2021/06/07 00:11:14;;;;;;;8.35;5.80;;;19.90;84.00;;;;;;4970833;28;20039;-66
2021/06/07 00:13:43;;;;;;;8.30;6.13;;;19.90;84.10;;;;;;4974707;28;20492;-65
2021/06/07 00:16:10;;;;;;;10.27;6.90;;;19.90;84.10;;;;;;4974679;28;20045;-66
2021/06/07 00:18:37;;;;;;;8.93;5.40;;;19.90;84.10;;;;;;4974645;28;20031;-66
2021/06/07 00:21:10;;;;;;;9.55;6.43;;;19.90;84.10;;;;;;4972755;28;20066;-65
2021/06/07 00:23:37;;;;;;;9.57;6.18;;;19.90;84.20;;;;;;4973487;28;20033;-65
2021/06/07 00:26:04;;;;;;;8.48;5.88;;;19.90;84.10;;;;;;4974603;28;20023;-65
2021/06/07 00:28:30;;;;;;;9.05;6.25;;;19.90;84.20;;;;;;4975312;28;20049;-66
2021/06/07 00:30:56;;;;;;;9.68;5.70;;;19.90;84.10;;;;;;4975675;28;20547;-65
2021/06/07 00:33:22;;;;;;;10.35;6.47;;;19.90;84.00;;;;;;4973538;28;20054;-65
2021/06/07 00:35:47;;;;;;;8.63;6.03;;;19.90;84.00;;;;;;4975553;28;20499;-65
2021/06/07 00:38:13;;;;;;;8.98;6.15;;;19.90;84.00;;;;;;4975802;28;20093;-65
2021/06/07 00:40:39;;;;;;;8.82;6.32;;;19.90;83.90;;;;;;4974251;28;20218;-66
2021/06/07 00:43:05;;;;;;;10.98;6.22;;;19.90;83.80;;;;;;4974960;28;20030;-65
2021/06/07 00:45:32;;;;;;;10.48;6.65;;;19.90;83.80;;;;;;4974118;28;20105;-65
2021/06/07 00:48:00;;;;;;;9.52;6.47;;;19.90;84.00;;;;;;4973865;28;20027;-65
2021/06/07 00:50:34;;;;;;;10.48;6.30;;;19.90;83.90;;;;;;4973827;28;20106;-66
2021/06/07 00:53:01;;;;;;;9.23;5.97;;;19.90;84.10;;;;;;4955931;29;20047;-65
2021/06/07 00:55:29;;;;;;;8.00;5.88;;;19.90;84.00;;;;;;4970275;28;20030;-65
2021/06/07 00:57:56;;;;;;;9.05;6.13;;;19.90;84.00;;;;;;4975121;28;20045;-65
2021/06/07 01:00:23;;;;;;;9.43;5.97;;;19.90;83.90;;;;;;4976560;28;20031;-65
2021/06/07 01:02:50;;;;;;;8.55;6.43;;;19.90;84.10;;;;;;4973458;28;20043;-65
2021/06/07 01:05:16;;;;;;;9.15;6.30;;;19.90;84.00;;;;;;4974980;28;20035;-65
2021/06/07 01:07:42;;;;;;;10.25;6.93;;;19.90;83.90;;;;;;4973918;28;20023;-65
2021/06/07 01:10:08;;;;;;;9.85;6.40;;;19.90;84.00;;;;;;4973798;28;20449;-65
2021/06/07 01:12:34;;;;;;;9.88;7.07;;;19.90;84.00;;;;;;4974973;28;20081;-65
2021/06/07 01:15:00;;;;;;;9.10;6.72;;;19.90;84.20;;;;;;4974860;28;20022;-65
2021/06/07 01:17:27;;;;;;;10.30;6.57;;;19.90;84.40;;;;;;4973427;28;20035;-65
2021/06/07 01:19:53;;;;;;;9.18;6.45;;;19.80;84.00;;;;;;4973124;28;20165;-65
2021/06/07 01:22:19;;;;;;;9.90;6.40;;;19.80;84.00;;;;;;4988959;28;20415;-66
2021/06/07 01:24:45;;;;;;;9.95;6.68;;;19.90;84.20;;;;;;4992035;28;20029;-66
2021/06/07 01:27:11;;;;;;;10.43;7.30;;;19.90;84.20;;;;;;4973367;28;20022;-66
2021/06/07 01:29:37;;;;;;;10.60;6.30;;;19.80;84.20;;;;;;4974785;28;20030;-66
2021/06/07 01:32:03;;;;;;;9.85;6.70;;;19.80;84.10;;;;;;4974141;28;20031;-66
2021/06/07 01:34:28;;;;;;;11.45;6.72;;;19.80;84.00;;;;;;4974054;28;20030;-66
2021/06/07 01:36:54;;;;;;;10.43;7.13;;;19.80;84.00;;;;;;4974528;28;20043;-66
2021/06/07 01:39:21;;;;;;;10.95;7.50;;;19.80;84.10;;;;;;4973171;28;20035;-66
2021/06/07 01:41:46;;;;;;;10.85;7.10;;;19.80;84.10;;;;;;4974305;28;20038;-65
2021/06/07 01:44:12;;;;;;;9.20;6.93;;;19.80;84.20;;;;;;4974170;28;20027;-65
2021/06/07 01:46:37;;;;;;;9.60;7.22;;;19.80;84.20;;;;;;4974195;28;20046;-66
2021/06/07 01:49:03;;;;;;;10.15;6.78;;;19.80;84.10;;;;;;4973078;28;20023;-66
2021/06/07 01:51:28;;;;;;;10.23;7.18;;;19.80;84.10;;;;;;4974006;28;20492;-65
2021/06/07 01:53:55;;;;;;;10.45;6.63;;;19.80;84.20;;;;;;4974078;28;20480;-66
2021/06/07 01:56:21;;;;;;;9.27;7.20;;;19.80;84.00;;;;;;4973644;28;20027;-66
2021/06/07 01:58:46;;;;;;;9.57;7.07;;;19.80;84.10;;;;;;4974226;28;20023;-65
2021/06/07 02:01:16;;;;;;;9.93;7.15;;;19.80;84.10;;;;;;4973919;28;20034;-66
2021/06/07 02:03:43;;;;;;;10.90;7.47;;;19.80;84.00;;;;;;4973867;28;20034;-66
2021/06/07 02:06:11;;;;;;;10.52;7.22;;;19.80;84.10;;;;;;4972355;28;20034;-66
2021/06/07 02:08:37;;;;;;;10.18;7.60;;;19.80;84.20;;;;;;4972900;28;20441;-65
2021/06/07 02:11:12;;;;;;;9.93;6.70;;;19.80;84.20;;;;;;4973602;28;20041;-65
2021/06/07 02:13:39;;;;;;;10.35;6.90;;;19.80;84.10;;;;;;4973569;28;20052;-66
2021/06/07 02:16:13;;;;;;;9.93;7.20;;;19.70;84.20;;;;;;4973786;28;20034;-66
2021/06/07 02:18:39;;;;;;;10.30;6.97;;;19.70;84.30;;;;;;4972447;28;20527;-66
2021/06/07 02:21:07;;;;;;;10.85;7.00;;;19.70;84.10;;;;;;4972665;28;20488;-65
2021/06/07 02:23:33;;;;;;;10.82;7.07;;;19.70;84.10;;;;;;4972549;28;20069;-66
2021/06/07 02:25:59;;;;;;;11.18;7.55;;;19.70;84.20;;;;;;4973485;28;20054;-65
2021/06/07 02:28:25;;;;;;;10.50;7.72;;;19.70;84.20;;;;;;4973137;28;20042;-63
2021/06/07 02:30:50;;;;;;;10.60;7.60;;;19.70;84.30;;;;;;4969258;28;20523;-66
2021/06/07 02:33:18;;;;;;;9.50;7.05;;;19.70;84.40;;;;;;4971712;28;20058;-65
2021/06/07 02:35:45;;;;;;;9.60;7.18;;;19.70;84.30;;;;;;4972326;28;20055;-65
2021/06/07 02:38:11;;;;;;;10.73;7.75;;;19.70;84.30;;;;;;4971996;28;20029;-65
2021/06/07 02:40:38;;;;;;;10.77;7.88;;;19.70;84.30;;;;;;4973043;28;20030;-66
2021/06/07 02:43:05;;;;;;;10.13;7.20;;;19.70;84.30;;;;;;4973050;28;20027;-65
2021/06/07 02:45:31;;;;;;;10.25;7.40;;;19.70;84.30;;;;;;4973031;28;20039;-65
2021/06/07 02:47:58;;;;;;;11.00;7.80;;;19.70;84.30;;;;;;4971657;28;20023;-65
2021/06/07 02:50:30;;;;;;;11.20;7.50;;;19.70;84.20;;;;;;4973253;28;20038;-66
2021/06/07 02:52:57;;;;;;;10.32;7.40;;;19.70;84.20;;;;;;4971860;28;20029;-66
2021/06/07 02:55:49;;;;;;;10.23;7.55;;;19.70;84.30;;;;;;4973168;28;20063;-66
2021/06/07 02:58:16;;;;;;;9.70;7.80;;;19.70;84.30;;;;;;4947843;28;20137;-66
2021/06/07 03:00:56;;;;;;;11.60;7.35;;;19.70;84.30;;;;;;4962712;28;20031;-65
2021/06/07 03:03:22;;;;;;;10.77;7.68;;;19.70;84.40;;;;;;4972933;28;20513;-66
2021/06/07 03:05:50;;;;;;;11.05;7.78;;;19.70;84.30;;;;;;4971580;28;20034;-65
2021/06/07 03:08:24;;;;;;;10.57;7.55;;;19.70;84.40;;;;;;4971618;28;20022;-66
2021/06/07 03:10:53;;;;;;;11.07;7.35;;;19.70;84.30;;;;;;4972752;28;20030;-66
2021/06/07 03:13:20;;;;;;;10.77;7.30;;;19.70;84.20;;;;;;4972658;28;20061;-65
2021/06/07 03:15:46;;;;;;;11.00;7.45;;;19.70;84.30;;;;;;4972689;28;20057;-66
2021/06/07 03:18:12;;;;;;;11.40;8.05;;;19.70;84.20;;;;;;4972827;28;20042;-67
2021/06/07 03:20:38;;;;;;;12.43;7.60;;;19.70;84.30;;;;;;4972593;28;20023;-65
2021/06/07 03:23:08;;;;;;;10.18;7.78;;;19.70;84.30;;;;;;4972690;28;20026;-65
2021/06/07 03:25:34;;;;;;;11.48;7.72;;;19.70;84.30;;;;;;4964941;28;20038;-66
2021/06/07 03:28:00;;;;;;;9.90;7.05;;;19.70;84.30;;;;;;4971637;28;20027;-65
2021/06/07 03:30:27;;;;;;;9.68;7.30;;;19.60;84.60;;;;;;4972724;28;20027;-66
2021/06/07 03:32:52;;;;;;;10.63;7.95;;;19.60;84.70;;;;;;4972246;28;20062;-65
2021/06/07 03:35:19;;;;;;;9.90;7.10;;;19.60;84.60;;;;;;4970957;28;20038;-65
2021/06/07 03:37:45;;;;;;;10.93;7.70;;;19.70;84.50;;;;;;4971523;28;20030;-66
2021/06/07 03:40:18;;;;;;;9.02;6.90;;;19.70;84.40;;;;;;4972566;28;20027;-64
2021/06/07 03:42:45;;;;;;;11.45;8.13;;;19.70;84.40;;;;;;4971766;28;20031;-66
2021/06/07 03:45:13;;;;;;;10.63;8.10;;;19.70;84.30;;;;;;4972042;28;20023;-65
2021/06/07 03:47:38;;;;;;;10.70;7.53;;;19.70;84.20;;;;;;4975107;28;20119;-65
2021/06/07 03:50:06;;;;;;;11.23;7.25;;;19.70;84.20;;;;;;4976429;28;20027;-66
2021/06/07 03:52:31;;;;;;;10.40;7.82;;;19.70;84.30;;;;;;4976235;28;20035;-66
2021/06/07 03:54:57;;;;;;;10.68;7.93;;;19.60;84.30;;;;;;4974274;28;20031;-66
2021/06/07 03:57:23;;;;;;;11.68;7.40;;;19.70;84.20;;;;;;4956034;29;20077;-66
2021/06/07 03:59:49;;;;;;;10.50;7.85;;;19.70;84.20;;;;;;4957329;28;20070;-66
2021/06/07 04:02:17;;;;;;;10.85;7.20;;;19.70;84.10;;;;;;4959142;28;20039;-66
2021/06/07 04:04:42;;;;;;;11.45;7.55;;;19.70;84.10;;;;;;4957760;28;20469;-65
2021/06/07 04:07:08;;;;;;;10.77;7.50;;;19.70;84.10;;;;;;4965212;28;20037;-65
2021/06/07 04:09:33;;;;;;;10.45;7.60;;;19.70;84.20;;;;;;4963374;28;20027;-65
2021/06/07 04:11:59;;;;;;;9.80;7.65;;;19.70;84.10;;;;;;4954442;29;20026;-67
2021/06/07 04:14:25;;;;;;;11.40;7.15;;;19.70;84.10;;;;;;4968184;28;20035;-66
2021/06/07 04:16:50;;;;;;;11.60;7.97;;;19.70;84.10;;;;;;4957072;28;20034;-65
2021/06/07 04:19:16;;;;;;;15.65;9.45;;;19.70;84.20;;;;;;4968212;28;20066;-65
2021/06/07 04:21:41;;;;;;;13.02;8.63;;;19.70;84.20;;;;;;4970037;28;20129;-66
2021/06/07 04:24:07;;;;;;;13.52;8.32;;;19.80;84.20;;;;;;4968320;28;20038;-66
2021/06/07 04:26:35;;;;;;;14.85;8.90;;;19.80;84.20;;;;;;4968355;28;20124;-65
2021/06/07 04:29:01;;;;;;;11.93;8.25;;;19.80;84.30;;;;;;4970017;28;20031;-66
2021/06/07 04:31:28;;;;;;;11.63;8.18;;;19.70;84.20;;;;;;4965783;28;20259;-66
2021/06/07 04:33:54;;;;;;;11.80;8.48;;;19.80;84.30;;;;;;4967057;28;20484;-66
2021/06/07 04:36:19;;;;;;;13.82;8.48;;;19.80;84.20;;;;;;4967174;28;20022;-66
2021/06/07 04:38:45;;;;;;;13.70;8.27;;;19.80;84.10;;;;;;4969746;28;20027;-65
2021/06/07 04:41:10;;;;;;;12.30;8.40;;;19.80;84.00;;;;;;4970593;28;20050;-65
2021/06/07 04:43:36;;;;;;;12.23;7.85;;;19.80;84.50;;;;;;4986731;28;20133;-65
2021/06/07 04:46:01;;;;;;;12.90;8.85;;;19.80;84.00;;;;;;4967302;28;20512;-64
2021/06/07 04:48:27;;;;;;;13.32;8.50;;;19.80;83.50;;;;;;4967079;28;20035;-65
2021/06/07 04:50:53;;;;;;;15.40;8.77;;;19.70;83.70;;;;;;4969703;28;20496;-65
2021/06/07 04:53:19;;;;;;;23.55;9.40;;;19.80;84.00;;;;;;4967648;28;20567;-67
2021/06/07 04:55:52;;;;;;;14.45;9.50;;;19.80;84.00;;;;;;4968131;28;20097;-65
2021/06/07 04:58:27;;;;;;;12.18;8.95;;;19.90;83.80;;;;;;4968506;28;20157;-65
2021/06/07 05:00:59;;;;;;;14.82;9.75;;;19.90;83.80;;;;;;4963704;28;20665;-65
2021/06/07 05:03:26;;;;;;;14.88;9.40;;;19.90;83.00;;;;;;4967399;28;20520;-66
2021/06/07 05:05:53;;;;;;;15.88;9.15;;;19.90;83.50;;;;;;4965725;28;20118;-65
2021/06/07 05:08:19;;;;;;;18.15;9.35;;;19.90;84.00;;;;;;4954518;28;20038;-66
2021/06/07 05:10:45;;;;;;;16.20;9.65;;;19.90;83.00;;;;;;4969241;28;20590;-65
2021/06/07 05:13:11;;;;;;;15.60;9.95;;;19.90;83.40;;;;;;4968769;28;20038;-64
2021/06/07 05:15:37;;;;;;;13.50;9.07;;;19.90;83.20;;;;;;4969104;28;20026;-66
2021/06/07 05:18:03;;;;;;;17.52;9.50;;;19.90;83.00;;;;;;4963592;28;20035;-65
2021/06/07 05:20:30;;;;;;;14.80;9.75;;;19.90;82.90;;;;;;4956202;28;20071;-65
2021/06/07 05:22:57;;;;;;;13.38;8.88;;;20.00;82.90;;;;;;4957590;28;20061;-64
2021/06/07 05:25:24;;;;;;;15.07;9.07;;;19.90;82.80;;;;;;4958750;28;20031;-65
2021/06/07 05:27:51;;;;;;;14.93;8.27;;;19.90;82.80;;;;;;4962335;28;20023;-66
2021/06/07 05:30:18;;;;;;;21.25;11.70;;;20.00;83.20;;;;;;4967275;28;20026;-65
2021/06/07 05:32:44;;;;;;;19.88;10.05;;;20.00;83.70;;;;;;4987265;28;20027;-66
2021/06/07 05:35:12;;;;;;;14.77;9.73;;;20.00;83.80;;;;;;4972089;28;20034;-66
2021/06/07 05:37:39;;;;;;;14.48;9.15;;;19.90;83.40;;;;;;4966124;28;20035;-64
2021/06/07 05:40:08;;;;;;;13.23;8.63;;;19.90;83.80;;;;;;4975231;28;20054;-65
2021/06/07 05:42:34;;;;;;;14.63;8.90;;;20.00;83.20;;;;;;4972320;28;20041;-64
2021/06/07 05:45:00;;;;;;;15.85;9.00;;;20.00;83.90;;;;;;4966145;28;20042;-65
2021/06/07 05:47:25;;;;;;;16.00;8.82;;;19.90;83.50;;;;;;4966520;28;20074;-66
2021/06/07 05:49:51;;;;;;;16.60;9.30;;;20.00;83.80;;;;;;4968723;28;20062;-67
2021/06/07 05:52:17;;;;;;;16.70;9.55;;;20.00;82.80;;;;;;4966218;28;20022;-66
2021/06/07 05:54:43;;;;;;;14.52;8.13;;;20.00;82.70;;;;;;4967132;28;20035;-65
2021/06/07 05:57:09;;;;;;;14.57;8.80;;;20.00;83.50;;;;;;4951881;28;20066;-65
2021/06/07 05:59:36;;;;;;;13.90;8.05;;;20.00;83.40;;;;;;4965127;28;20791;-67
2021/06/07 06:02:06;;;;;;;15.82;8.75;;;20.10;83.30;;;;;;4978965;28;20027;-65
2021/06/07 06:04:33;;;;;;;11.90;8.05;;;20.10;83.20;;;;;;4984536;28;20030;-65
2021/06/07 06:07:03;;;;;;;14.07;8.00;;;20.10;83.30;;;;;;4971646;28;20019;-66
2021/06/07 06:09:28;;;;;;;11.32;7.63;;;20.20;83.30;;;;;;4968432;28;20035;-66
2021/06/07 06:11:56;;;;;;;13.85;8.80;;;20.20;82.60;;;;;;4970886;28;20082;-64
2021/06/07 06:14:22;;;;;;;12.15;8.43;;;20.20;83.00;;;;;;4961251;28;20039;-66
2021/06/07 06:16:48;;;;;;;12.63;7.88;;;20.20;81.80;;;;;;4989843;28;20794;-65
2021/06/07 06:19:14;;;;;;;14.88;8.02;;;20.20;82.30;;;;;;4954401;28;20035;-65
2021/06/07 06:21:40;;;;;;;12.77;8.18;;;20.20;82.20;;;;;;4955981;28;20501;-65
2021/06/07 06:24:10;;;;;;;13.30;8.57;;;20.20;82.40;;;;;;4947803;29;20034;-65
2021/06/07 06:26:38;;;;;;;14.68;9.43;;;20.30;81.70;;;;;;4952537;28;20034;-65
2021/06/07 06:29:05;;;;;;;17.77;9.70;;;20.20;81.50;;;;;;4955950;28;20489;-64
2021/06/07 06:31:30;;;;;;;15.02;9.35;;;20.30;81.40;;;;;;4988852;28;20027;-65
2021/06/07 06:33:56;;;;;;;13.50;9.45;;;20.30;80.80;;;;;;4955542;28;20038;-66
2021/06/07 06:36:22;;;;;;;14.60;9.30;;;20.30;81.00;;;;;;4957366;28;20031;-65
2021/06/07 06:38:47;;;;;;;13.10;9.05;;;20.30;80.60;;;;;;4961816;28;20117;-65
2021/06/07 06:41:13;;;;;;;15.68;9.95;;;20.30;80.10;;;;;;4947958;29;20122;-66
2021/06/07 06:43:39;;;;;;;15.40;10.48;;;20.30;79.60;;;;;;4946114;29;20053;-65
2021/06/07 06:46:05;;;;;;;13.85;10.05;;;20.30;79.80;;;;;;4946876;28;20031;-65
2021/06/07 06:48:33;;;;;;;15.25;9.88;;;20.30;79.10;;;;;;4979139;28;20061;-65
2021/06/07 06:50:59;;;;;;;14.95;9.43;;;20.40;79.50;;;;;;4983420;28;20050;-66
2021/06/07 06:53:25;;;;;;;16.38;9.85;;;20.40;79.40;;;;;;4960813;28;20437;-65
2021/06/07 06:55:51;;;;;;;17.30;9.20;;;20.40;79.50;;;;;;4969446;28;20035;-66
2021/06/07 06:58:17;;;;;;;14.15;8.75;;;20.40;78.70;;;;;;4964738;28;20047;-66
2021/06/07 07:00:44;;;;;;;14.32;8.98;;;20.40;78.50;;;;;;4965779;28;20035;-67
2021/06/07 07:03:13;;;;;;;13.98;9.52;;;20.50;78.20;;;;;;4966721;28;20444;-65
2021/06/07 07:05:39;;;;;;;14.18;8.82;;;20.40;78.20;;;;;;4966652;28;20027;-66
2021/06/07 07:08:06;;;;;;;15.68;9.65;;;20.40;78.00;;;;;;4967320;28;20065;-65
2021/06/07 07:10:36;;;;;;;14.85;10.05;;;20.40;78.00;;;;;;4965326;28;20022;-66
2021/06/07 07:13:02;;;;;;;15.20;9.75;;;20.40;77.60;;;;;;4966443;28;20158;-65
2021/06/07 07:15:27;;;;;;;15.00;10.15;;;20.40;77.50;;;;;;4965771;28;20111;-66
2021/06/07 07:17:53;;;;;;;13.38;9.35;;;20.50;77.50;;;;;;4966589;28;20022;-65
2021/06/07 07:20:18;;;;;;;13.50;9.80;;;20.50;77.20;;;;;;4966762;28;20035;-65
2021/06/07 07:22:45;;;;;;;13.88;10.02;;;20.50;77.00;;;;;;4964498;28;20121;-65
2021/06/07 07:25:12;;;;;;;15.70;9.52;;;20.50;77.00;;;;;;4965161;28;20085;-65
2021/06/07 07:27:38;;;;;;;14.63;9.48;;;20.50;76.60;;;;;;4966625;28;20019;-66
2021/06/07 07:30:10;;;;;;;12.80;8.70;;;20.50;76.90;;;;;;4965250;28;20212;-66
2021/06/07 07:32:37;;;;;;;12.65;9.63;;;20.50;76.60;;;;;;4964764;28;20579;-66
2021/06/07 07:35:04;;;;;;;13.82;10.05;;;20.60;76.50;;;;;;4967011;28;20081;-66
2021/06/07 07:37:29;;;;;;;13.55;9.52;;;20.60;76.10;;;;;;4966309;28;20905;-65
2021/06/07 07:39:55;;;;;;;12.55;9.50;;;20.60;76.10;;;;;;4965274;28;20062;-66
2021/06/07 07:42:21;;;;;;;15.75;9.50;;;20.60;76.10;;;;;;4966908;28;20035;-66
2021/06/07 07:44:46;;;;;;;11.80;8.50;;;20.60;76.90;;;;;;4958427;28;20085;-66
2021/06/07 07:47:12;;;;;;;12.27;8.20;;;20.70;77.30;;;;;;4966337;28;20658;-65
2021/06/07 07:49:38;;;;;;;13.07;7.72;;;20.70;77.00;;;;;;4976735;28;20034;-65
2021/06/07 07:52:05;;;;;;;11.60;7.43;;;20.70;77.40;;;;;;4962348;28;20031;-65
2021/06/07 07:54:31;;;;;;;11.15;7.57;;;20.80;77.40;;;;;;4956546;28;20025;-65
2021/06/07 07:56:57;;;;;;;10.52;7.88;;;20.80;77.20;;;;;;4959582;28;20039;-65
2021/06/07 07:59:23;;;;;;;14.07;9.00;;;20.80;78.20;;;;;;4965513;28;20069;-64
2021/06/07 08:01:48;;;;;;;12.82;8.40;;;20.90;76.40;;;;;;4975969;28;20334;-65
2021/06/07 08:04:14;;;;;;;9.73;7.22;;;20.80;77.20;;;;;;4981955;28;20480;-65
2021/06/07 08:06:42;;;;;;;9.80;7.45;;;20.90;77.40;;;;;;4963347;28;21038;-66
2021/06/07 08:09:08;;;;;;;9.32;7.25;;;21.00;77.50;;;;;;4977611;28;20014;-65
2021/06/07 08:11:33;;;;;;;9.40;6.63;;;21.00;77.30;;;;;;4983299;28;20033;-64
2021/06/07 08:13:59;;;;;;;10.50;7.13;;;21.00;77.10;;;;;;4978208;28;20535;-66
2021/06/07 08:16:25;;;;;;;9.40;6.78;;;21.00;77.30;;;;;;4970285;28;20306;-64
2021/06/07 08:18:50;;;;;;;9.48;6.45;;;21.00;76.70;;;;;;4956346;28;20030;-66
2021/06/07 08:21:16;;;;;;;10.32;7.35;;;21.00;76.90;;;;;;4951578;28;20023;-65
2021/06/07 08:23:41;;;;;;;11.43;7.00;;;21.00;76.70;;;;;;4956962;28;20067;-64
2021/06/07 08:26:07;;;;;;;10.27;6.35;;;21.00;76.40;;;;;;4960404;28;20113;-64
2021/06/07 08:28:33;;;;;;;10.40;6.60;;;21.00;76.80;;;;;;4947097;28;20031;-65
2021/06/07 08:30:58;;;;;;;9.20;6.55;;;21.10;76.50;;;;;;4953419;28;20034;-66
2021/06/07 08:33:24;;;;;;;9.93;6.63;;;21.10;76.90;;;;;;4988540;28;20589;-64
2021/06/07 08:35:50;;;;;;;12.20;7.20;;;21.00;76.30;;;;;;4963652;28;20038;-65
2021/06/07 08:38:17;;;;;;;10.23;7.07;;;21.10;75.70;;;;;;4956320;28;20508;-65
2021/06/07 08:40:43;;;;;;;9.32;6.35;;;21.20;75.80;;;;;;4959789;28;20117;-65
2021/06/07 08:43:09;;;;;;;8.65;6.03;;;21.20;75.40;;;;;;4958305;28;20580;-65
2021/06/07 08:45:35;;;;;;;8.52;5.90;;;21.30;75.90;;;;;;4962819;28;20031;-65
2021/06/07 08:48:01;;;;;;;8.60;6.10;;;21.40;75.30;;;;;;4965831;28;20037;-64
2021/06/07 08:50:30;;;;;;;8.77;6.30;;;21.50;74.70;;;;;;4970257;28;20110;-64
2021/06/07 08:52:56;;;;;;;8.10;5.57;;;21.50;74.80;;;;;;4968218;28;20026;-65
2021/06/07 08:55:31;;;;;;;8.98;6.90;;;21.50;74.60;;;;;;4965503;28;20062;-65
2021/06/07 08:57:57;;;;;;;8.63;5.72;;;21.40;74.50;;;;;;4969819;28;20042;-65
2021/06/07 09:00:28;;;;;;;11.38;6.40;;;21.40;74.80;;;;;;4979550;28;20022;-64
2021/06/07 09:03:00;;;;;;;8.85;5.78;;;21.30;75.40;;;;;;4977382;28;20026;-65
2021/06/07 09:05:26;;;;;;;10.35;6.00;;;21.20;75.60;;;;;;4987064;28;20038;-65
2021/06/07 09:08:13;;;;;;;8.95;6.10;;;21.10;75.80;;;;;;4987860;28;20121;-65
2021/06/07 09:10:43;;;;;;;9.43;5.68;;;21.20;75.80;;;;;;4987070;28;20410;-65
2021/06/07 09:13:11;;;;;;;8.30;6.05;;;21.20;76.00;;;;;;4987387;28;20101;-65
2021/06/07 09:15:45;;;;;;;9.60;6.18;;;21.20;75.70;;;;;;4987611;28;20066;-65
2021/06/07 09:18:14;;;;;;;8.85;6.15;;;21.30;75.50;;;;;;4987343;28;20066;-65
2021/06/07 09:20:42;;;;;;;7.75;6.05;;;21.30;75.10;;;;;;4987464;28;20030;-65
2021/06/07 09:23:14;;;;;;;8.23;5.85;;;21.50;74.60;;;;;;4985985;28;20030;-65
2021/06/07 09:25:45;;;;;;;8.52;5.65;;;21.60;73.80;;;;;;4964786;28;20181;-65
2021/06/07 09:28:14;;;;;;;8.27;5.72;;;21.60;73.70;;;;;;4967650;28;20370;-65
2021/06/07 09:30:54;;;;;;;8.55;5.53;;;21.50;74.10;;;;;;4959211;28;20037;-65
2021/06/07 09:33:22;;;;;;;7.47;5.63;;;21.40;74.60;;;;;;4960031;28;20231;-64
2021/06/07 09:36:07;;;;;;;7.22;4.90;;;21.70;73.50;;;;;;4961426;28;20121;-65
2021/06/07 09:38:50;;;;;;;7.72;5.43;;;22.10;71.70;;;;;;4964429;28;20492;-65
2021/06/07 09:41:15;;;;;;;7.38;5.05;;;22.50;70.10;;;;;;4959815;28;20042;-64
2021/06/07 09:43:54;;;;;;;8.52;5.53;;;22.80;68.10;;;;;;4956640;28;20022;-65
2021/06/07 09:46:24;;;;;;;8.57;5.78;;;22.30;69.80;;;;;;4957924;28;20118;-65
2021/06/07 09:48:50;;;;;;;7.57;4.90;;;22.00;71.50;;;;;;4959946;28;20111;-64
2021/06/07 09:51:19;;;;;;;7.65;5.15;;;21.80;72.60;;;;;;4956401;28;20445;-65
2021/06/07 09:53:48;;;;;;;6.95;5.07;;;21.60;73.40;;;;;;4989222;28;20515;-64
2021/06/07 09:56:15;;;;;;;8.63;5.07;;;21.60;73.80;;;;;;4959774;28;20042;-65
2021/06/07 09:58:41;;;;;;;7.63;5.43;;;21.50;73.80;;;;;;4956972;28;20547;-65
2021/06/07 10:01:18;;;;;;;8.00;5.32;;;21.60;74.30;;;;;;4955720;28;20035;-64
2021/06/07 10:03:53;;;;;;;8.05;5.72;;;21.60;74.00;;;;;;4978119;28;20523;-65
2021/06/07 10:06:36;;;;;;;6.80;4.82;;;21.60;74.10;;;;;;4985592;28;20054;-65
2021/06/07 10:09:08;;;;;;;8.13;5.53;;;21.60;73.90;;;;;;4979209;28;20018;-66
2021/06/07 10:11:45;;;;;;;7.88;4.90;;;21.60;73.80;;;;;;4985940;28;20034;-65
2021/06/07 10:14:20;;;;;;;8.63;5.20;;;21.50;74.00;;;;;;4987698;28;20032;-65
2021/06/07 10:16:50;;;;;;;7.18;4.70;;;21.60;73.80;;;;;;4986602;28;20030;-66
2021/06/07 10:19:19;;;;;;;7.88;5.22;;;21.70;73.40;;;;;;4988138;28;20061;-65
2021/06/07 10:21:46;;;;;;;8.00;5.30;;;21.60;73.40;;;;;;4987004;28;20472;-65
2021/06/07 10:24:14;;;;;;;8.48;5.13;;;21.60;73.50;;;;;;4987406;28;20032;-65
2021/06/07 10:26:39;;;;;;;9.70;5.00;;;21.60;73.60;;;;;;4987485;28;20452;-65
2021/06/07 10:29:05;;;;;;;7.97;5.25;;;21.50;74.10;;;;;;4987658;28;20393;-65
2021/06/07 10:31:31;;;;;;;6.93;5.20;;;21.50;74.40;;;;;;4987782;28;20432;-66
2021/06/07 10:34:03;;;;;;;7.97;5.22;;;21.40;74.50;;;;;;4985626;28;20034;-65
2021/06/07 10:36:36;;;;;;;7.75;5.10;;;21.40;74.60;;;;;;4987446;28;20036;-65
2021/06/07 10:39:18;;;;;;;7.15;4.78;;;21.40;74.90;;;;;;4986101;28;20034;-66
2021/06/07 10:41:50;;;;;;;7.20;4.70;;;21.30;74.90;;;;;;4987463;28;20021;-65
2021/06/07 10:44:37;;;;;;;7.38;4.85;;;21.30;75.00;;;;;;4985973;28;20034;-64
2021/06/07 10:47:05;;;;;;;6.80;4.80;;;21.40;75.30;;;;;;4987580;28;20033;-65
2021/06/07 10:49:46;;;;;;;8.02;5.50;;;21.40;75.10;;;;;;4985613;28;20031;-66
2021/06/07 10:52:29;;;;;;;7.72;5.53;;;21.40;74.70;;;;;;4985853;28;20029;-65
2021/06/07 10:55:00;;;;;;;7.80;4.68;;;21.50;75.00;;;;;;4987231;28;20030;-65
2021/06/07 10:57:25;;;;;;;7.03;4.80;;;21.50;74.30;;;;;;4986997;28;20038;-65
2021/06/07 10:59:55;;;;;;;7.05;4.68;;;21.50;74.20;;;;;;4987090;28;20760;-65
2021/06/07 11:02:22;;;;;;;7.07;4.45;;;21.50;74.30;;;;;;4987331;28;20109;-65
2021/06/07 11:05:07;;;;;;;7.55;5.05;;;21.50;74.20;;;;;;4986952;28;20057;-65
2021/06/07 11:07:34;;;;;;;7.18;4.80;;;21.50;74.70;;;;;;4985464;28;20051;-65
2021/06/07 11:10:19;;;;;;;7.35;4.63;;;21.40;74.80;;;;;;4987593;28;20031;-66
2021/06/07 11:12:46;;;;;;;7.97;5.03;;;21.40;74.70;;;;;;4986828;28;20022;-65
2021/06/07 11:15:14;;;;;;;6.13;4.10;;;21.40;74.60;;;;;;4985695;28;20038;-65
2021/06/07 11:17:40;;;;;;;6.50;4.30;;;21.40;74.50;;;;;;4987040;28;20380;-65
2021/06/07 11:20:07;;;;;;;6.57;4.70;;;21.50;74.50;;;;;;4986527;28;20041;-65
2021/06/07 11:23:01;;;;;;;7.28;4.72;;;21.50;74.50;;;;;;4986792;28;20444;-65
2021/06/07 11:25:27;;;;;;;7.25;5.03;;;21.50;74.20;;;;;;4986567;28;20369;-66
2021/06/07 11:27:53;;;;;;;6.72;4.47;;;21.50;74.70;;;;;;4985670;28;20030;-65
2021/06/07 11:30:21;;;;;;;6.57;4.38;;;21.50;74.20;;;;;;4985246;28;20219;-65
2021/06/07 11:32:47;;;;;;;6.25;4.15;;;21.50;74.60;;;;;;4986642;28;20029;-64
2021/06/07 11:35:39;;;;;;;6.35;4.38;;;21.50;74.30;;;;;;4985261;28;20034;-65
2021/06/07 11:38:27;;;;;;;6.90;4.60;;;21.50;74.70;;;;;;4985263;28;20120;-65
2021/06/07 11:40:52;;;;;;;6.60;4.32;;;21.40;74.50;;;;;;4985287;28;20523;-66
2021/06/07 11:43:47;;;;;;;6.35;4.57;;;21.40;74.60;;;;;;4985158;28;20220;-66
2021/06/07 11:46:30;;;;;;;6.38;4.22;;;21.50;74.70;;;;;;4985215;28;20042;-65
2021/06/07 11:49:12;;;;;;;5.97;4.15;;;21.40;74.70;;;;;;4963404;28;20411;-64
2021/06/07 11:51:38;;;;;;;7.18;4.47;;;21.40;74.60;;;;;;4960278;28;20058;-64
2021/06/07 11:54:25;;;;;;;7.50;4.25;;;21.40;74.70;;;;;;4955658;28;20027;-66
2021/06/07 11:56:55;;;;;;;6.88;4.63;;;21.40;74.80;;;;;;4960976;28;20078;-67
2021/06/07 11:59:25;;;;;;;7.10;4.72;;;21.40;74.80;;;;;;4945480;28;20027;-65
2021/06/07 12:01:51;;;;;;;6.80;4.45;;;21.40;74.30;;;;;;4947944;29;20035;-65
2021/06/07 12:04:27;;;;;;;7.28;4.60;;;21.40;74.70;;;;;;4947510;29;20054;-65
2021/06/07 12:07:04;;;;;;;6.65;4.05;;;21.40;74.70;;;;;;4946612;29;20027;-64
2021/06/07 12:09:32;;;;;;;7.15;4.40;;;21.40;74.70;;;;;;4950123;29;20051;-65
2021/06/07 12:11:58;;;;;;;5.82;4.10;;;21.40;74.70;;;;;;4952445;29;20038;-65
2021/06/07 12:14:40;;;;;;;7.32;4.70;;;21.40;74.60;;;;;;4950209;29;20555;-66
2021/06/07 12:17:10;;;;;;;6.10;4.43;;;21.40;74.60;;;;;;4950201;29;20393;-65
2021/06/07 12:19:40;;;;;;;8.25;4.78;;;21.40;74.60;;;;;;4951482;29;20412;-64
2021/06/07 12:22:24;;;;;;;7.10;4.53;;;21.40;74.40;;;;;;4971481;28;20034;-64
2021/06/07 12:25:15;;;;;;;8.35;4.30;;;21.40;74.50;;;;;;4970125;28;20042;-65
2021/06/07 12:30:26;;;;;;;7.18;3.90;;;21.50;74.60;;;;;;4970230;28;20463;-66
2021/06/07 12:32:53;;;;;;;6.13;4.28;;;21.60;74.50;;;;;;4970299;28;20368;-65
2021/06/07 12:35:20;;;;;;;9.13;4.32;;;21.50;74.00;;;;;;4969740;28;20086;-66
2021/06/07 12:37:55;;;;;;;7.88;4.05;;;21.60;74.20;;;;;;4967996;28;20031;-65
2021/06/07 12:40:27;;;;;;;6.45;4.00;;;21.50;74.10;;;;;;4970645;28;20082;-65
2021/06/07 12:43:02;;;;;;;6.22;4.10;;;21.50;74.00;;;;;;4970336;28;20023;-65
2021/06/07 12:45:33;;;;;;;7.15;4.53;;;21.50;74.10;;;;;;4976193;28;20030;-67
2021/06/07 12:48:29;;;;;;;10.15;4.43;;;21.50;73.60;;;;;;4978205;28;20023;-65
2021/06/07 12:51:04;;;;;;;7.85;5.60;;;21.40;73.70;;;;;;4952341;28;20058;-66